Time;durP1;ratioP1;P1;durP2;ratioP2;P2;SDS_P1;SDS_P2;PMS_P1;PMS_P2;Temp;Humidity;BMP_temperature;BMP_pressure;BME280_temperature;BME280_humidity;BME280_pressure;Samples;Min_cycle;Max_cycle;Signal;HPM_P1;HPM_P2
2023/08/25 00:00:57;;;;;;;16.08;14.65;;;19.80;99.90;;;;;;4845849;29;20085;-82
2023/08/25 00:03:23;;;;;;;17.90;16.17;;;19.70;99.90;;;;;;4830270;29;20045;-82
2023/08/25 00:05:53;;;;;;;15.65;14.05;;;19.70;99.90;;;;;;4829113;29;20045;-83
2023/08/25 00:08:19;;;;;;;16.90;15.25;;;19.70;99.90;;;;;;4829629;29;20049;-83
2023/08/25 00:10:45;;;;;;;16.70;15.30;;;19.70;99.90;;;;;;4827385;29;20069;-81
2023/08/25 00:13:11;;;;;;;16.17;14.77;;;19.60;99.90;;;;;;4828647;29;20112;-82
2023/08/25 00:15:36;;;;;;;17.33;15.63;;;19.60;99.90;;;;;;4845009;29;20053;-82
2023/08/25 00:18:02;;;;;;;16.42;14.90;;;19.60;99.90;;;;;;4846741;29;20050;-83
2023/08/25 00:20:29;;;;;;;16.63;15.02;;;19.60;99.90;;;;;;4829006;29;20045;-81
2023/08/25 00:22:55;;;;;;;17.85;16.15;;;19.60;99.90;;;;;;4827184;29;20050;-81
2023/08/25 00:25:20;;;;;;;18.20;16.45;;;19.60;99.90;;;;;;4836105;29;20045;-82
2023/08/25 00:27:46;;;;;;;18.10;16.42;;;19.50;99.90;;;;;;4812970;29;20077;-82
2023/08/25 00:30:12;;;;;;;20.15;18.20;;;19.50;99.90;;;;;;4818469;29;20041;-82
2023/08/25 00:32:38;;;;;;;18.45;16.58;;;19.50;99.90;;;;;;4825608;29;20049;-83
2023/08/25 00:35:05;;;;;;;18.70;17.00;;;19.50;99.90;;;;;;4831390;29;20038;-82
2023/08/25 00:37:30;;;;;;;18.77;16.88;;;19.40;99.90;;;;;;4840968;29;20478;-82
2023/08/25 00:39:56;;;;;;;18.00;16.20;;;19.50;99.90;;;;;;4838370;29;20045;-82
2023/08/25 00:42:22;;;;;;;18.70;17.00;;;19.40;99.90;;;;;;4835356;29;20053;-82
2023/08/25 00:44:47;;;;;;;17.80;16.13;;;19.40;99.90;;;;;;4822643;29;20038;-83
2023/08/25 00:47:13;;;;;;;18.17;16.38;;;19.40;99.90;;;;;;4804293;29;20512;-82
2023/08/25 00:49:40;;;;;;;16.90;15.30;;;19.40;99.90;;;;;;4798901;29;20524;-81
2023/08/25 00:52:07;;;;;;;17.48;15.60;;;19.40;99.90;;;;;;4827710;29;20041;-82
2023/08/25 00:54:34;;;;;;;17.52;15.82;;;19.30;99.90;;;;;;4844545;29;20153;-81
2023/08/25 00:57:02;;;;;;;19.35;17.63;;;19.30;99.90;;;;;;4824612;29;20049;-81
2023/08/25 00:59:29;;;;;;;17.77;16.05;;;19.30;99.90;;;;;;4842980;29;20490;-83
2023/08/25 01:01:55;;;;;;;;;;;19.40;99.90;;;;;;4835162;29;20080;-83
2023/08/25 01:04:21;;;;;;;19.80;17.88;;;19.40;99.90;;;;;;4831780;29;19927;-80
2023/08/25 01:06:48;;;;;;;18.52;16.90;;;19.30;99.90;;;;;;4801107;29;20041;-83
2023/08/25 01:09:14;;;;;;;20.85;18.85;;;19.40;99.90;;;;;;4833583;29;20046;-82
2023/08/25 01:11:55;;;;;;;20.48;18.55;;;19.40;99.90;;;;;;4827487;29;20482;-82
2023/08/25 01:14:47;;;;;;;20.42;18.35;;;19.50;99.90;;;;;;4825689;29;20050;-82
2023/08/25 01:17:44;;;;;;;22.30;20.08;;;19.50;99.90;;;;;;4833757;29;20132;-81
2023/08/25 01:20:11;;;;;;;20.10;18.20;;;19.50;99.90;;;;;;4831125;29;20106;-81
2023/08/25 01:23:02;;;;;;;21.25;19.35;;;19.50;99.90;;;;;;4823109;29;20052;-78
2023/08/25 01:25:29;;;;;;;20.90;18.90;;;19.60;99.90;;;;;;4837711;29;20060;-82
2023/08/25 01:27:57;;;;;;;21.23;18.90;;;19.60;99.90;;;;;;4842253;29;20082;-83
2023/08/25 01:30:24;;;;;;;22.23;20.17;;;19.60;99.90;;;;;;4843216;29;20113;-84
2023/08/25 01:32:51;;;;;;;;;;;19.60;99.90;;;;;;4814958;29;20124;-83
2023/08/25 01:35:19;;;;;;;21.13;18.92;;;19.60;99.90;;;;;;4827676;29;19920;-81
2023/08/25 01:38:02;;;;;;;20.52;18.42;;;19.60;99.90;;;;;;4824696;29;20060;-80
2023/08/25 01:40:39;;;;;;;21.63;19.58;;;19.70;99.90;;;;;;4826849;29;20128;-80
2023/08/25 01:43:10;;;;;;;19.77;17.77;;;19.70;99.90;;;;;;4827526;29;20048;-82
2023/08/25 01:45:36;;;;;;;20.23;18.23;;;19.70;99.90;;;;;;4836000;29;20120;-84
2023/08/25 01:48:05;;;;;;;24.10;21.70;;;19.70;99.90;;;;;;4822615;29;20343;-82
2023/08/25 01:50:33;;;;;;;22.13;20.13;;;19.60;99.90;;;;;;4824753;29;20055;-84
2023/08/25 01:52:59;;;;;;;20.77;18.77;;;19.60;99.90;;;;;;4829252;29;20223;-83
2023/08/25 01:55:25;;;;;;;20.70;18.60;;;19.60;99.90;;;;;;4842364;29;20160;-82
2023/08/25 01:57:51;;;;;;;21.30;19.20;;;19.60;99.90;;;;;;4822541;29;20474;-83
2023/08/25 02:00:19;;;;;;;21.75;19.67;;;19.60;99.90;;;;;;4845305;29;20398;-82
2023/08/25 02:02:44;;;;;;;20.92;18.88;;;19.50;99.90;;;;;;4832547;29;20045;-83
2023/08/25 02:05:10;;;;;;;20.30;18.25;;;19.50;99.90;;;;;;4842644;29;20096;-82
2023/08/25 02:07:36;;;;;;;22.75;20.58;;;19.50;99.90;;;;;;4822973;29;20038;-83
2023/08/25 02:10:02;;;;;;;22.15;19.92;;;19.50;99.90;;;;;;4813135;29;20053;-81
2023/08/25 02:12:28;;;;;;;21.85;19.80;;;19.50;99.90;;;;;;4827064;29;20077;-82
2023/08/25 02:14:54;;;;;;;21.25;19.13;;;19.40;99.90;;;;;;4842139;29;20629;-82
2023/08/25 02:17:20;;;;;;;21.70;19.50;;;19.40;99.90;;;;;;4827647;29;20045;-82
2023/08/25 02:19:45;;;;;;;20.40;18.52;;;19.40;99.90;;;;;;4829795;29;20527;-83
2023/08/25 02:22:11;;;;;;;21.80;19.55;;;19.40;99.90;;;;;;4836306;29;20054;-84
2023/08/25 02:24:37;;;;;;;20.65;18.65;;;19.30;99.90;;;;;;4844190;29;20067;-83
2023/08/25 02:27:02;;;;;;;20.83;18.85;;;19.30;99.90;;;;;;4846002;29;20050;-83
2023/08/25 02:29:29;;;;;;;20.65;18.55;;;19.30;99.90;;;;;;4821065;29;20037;-83
2023/08/25 02:31:55;;;;;;;22.38;20.13;;;19.20;99.90;;;;;;4830669;29;20080;-84
2023/08/25 02:34:22;;;;;;;20.30;18.23;;;19.20;99.90;;;;;;4829686;29;20042;-82
2023/08/25 02:36:47;;;;;;;20.67;18.60;;;19.20;99.90;;;;;;4815597;29;20052;-82
2023/08/25 02:39:13;;;;;;;20.60;18.58;;;19.20;99.90;;;;;;4826972;29;20053;-83
2023/08/25 02:41:39;;;;;;;23.17;20.80;;;19.20;99.90;;;;;;4820971;29;20106;-84
2023/08/25 02:44:04;;;;;;;23.42;20.92;;;19.20;99.90;;;;;;4812435;29;20049;-84
2023/08/25 02:46:30;;;;;;;22.92;20.52;;;19.20;99.90;;;;;;4831317;29;20049;-82
2023/08/25 02:48:56;;;;;;;23.13;20.77;;;19.20;99.90;;;;;;4830895;29;20072;-82
2023/08/25 02:51:21;;;;;;;23.58;21.17;;;19.20;99.90;;;;;;4828574;29;20045;-83
2023/08/25 02:53:47;;;;;;;22.70;20.30;;;19.20;99.90;;;;;;4846980;29;20049;-83
2023/08/25 02:56:13;;;;;;;22.45;20.27;;;19.20;99.90;;;;;;4822932;29;20050;-82
2023/08/25 02:58:38;;;;;;;21.50;19.33;;;19.20;99.90;;;;;;4844879;29;20761;-83
2023/08/25 03:01:14;;;;;;;23.08;20.77;;;19.20;99.90;;;;;;4839429;29;20046;-82
2023/08/25 03:03:40;;;;;;;23.33;20.08;;;19.30;99.90;;;;;;4831721;29;20386;-83
2023/08/25 03:06:06;;;;;;;22.90;20.40;;;19.30;99.90;;;;;;4834701;29;20037;-87
2023/08/25 03:08:31;;;;;;;28.08;23.98;;;19.30;99.90;;;;;;4832824;29;20294;-83
2023/08/25 03:11:00;;;;;;;25.33;22.63;;;19.40;99.90;;;;;;4833123;29;20037;-83
2023/08/25 03:13:26;;;;;;;24.65;22.05;;;19.40;99.90;;;;;;4830587;29;20129;-83
2023/08/25 03:15:54;;;;;;;24.13;21.15;;;19.40;99.90;;;;;;4847280;29;20144;-82
2023/08/25 03:18:20;;;;;;;24.95;22.42;;;19.40;99.90;;;;;;4830941;29;20042;-84
2023/08/25 03:20:51;;;;;;;24.58;21.98;;;19.50;99.90;;;;;;4835780;29;20050;-84
2023/08/25 03:23:17;;;;;;;23.65;21.13;;;19.50;99.90;;;;;;4843930;29;20045;-83
2023/08/25 03:25:43;;;;;;;24.95;22.35;;;19.50;99.90;;;;;;4845024;29;20064;-84
2023/08/25 03:28:09;;;;;;;24.58;22.05;;;19.50;99.90;;;;;;4830555;29;20041;-84
2023/08/25 03:30:34;;;;;;;23.92;21.45;;;19.50;99.90;;;;;;4844313;29;20049;-85
2023/08/25 03:33:00;;;;;;;24.63;20.75;;;19.50;99.90;;;;;;4827260;29;20047;-83
2023/08/25 03:35:26;;;;;;;24.10;21.50;;;19.50;99.90;;;;;;4824550;29;20097;-83
2023/08/25 03:37:52;;;;;;;22.85;19.55;;;19.60;99.90;;;;;;4815741;29;20083;-83
2023/08/25 03:40:20;;;;;;;22.98;20.45;;;19.50;99.90;;;;;;4848063;29;20050;-83
2023/08/25 03:42:46;;;;;;;21.55;19.08;;;19.50;99.90;;;;;;4827449;29;20056;-83
2023/08/25 03:45:12;;;;;;;23.13;19.38;;;19.50;99.90;;;;;;4790458;29;20046;-83
2023/08/25 03:47:37;;;;;;;23.42;20.92;;;19.50;99.90;;;;;;4829111;29;20042;-85
2023/08/25 03:50:04;;;;;;;22.38;19.60;;;19.50;99.90;;;;;;4805938;29;20106;-83
2023/08/25 03:52:30;;;;;;;22.77;19.98;;;19.50;99.90;;;;;;4828534;29;20075;-84
2023/08/25 03:54:56;;;;;;;21.58;18.98;;;19.40;99.90;;;;;;4843276;29;20049;-83
2023/08/25 03:57:21;;;;;;;24.83;21.38;;;19.40;99.90;;;;;;4816263;29;20053;-82
2023/08/25 03:59:47;;;;;;;23.83;21.08;;;19.40;99.90;;;;;;4808303;29;20102;-83
2023/08/25 04:02:13;;;;;;;24.25;20.63;;;19.40;99.90;;;;;;4821951;29;20132;-82
2023/08/25 04:04:38;;;;;;;23.42;20.98;;;19.40;99.90;;;;;;4850765;29;20041;-83
2023/08/25 04:07:04;;;;;;;22.67;20.48;;;19.40;99.90;;;;;;4817258;29;20044;-83
2023/08/25 04:09:31;;;;;;;23.58;21.17;;;19.40;99.90;;;;;;4820341;29;20076;-83
2023/08/25 04:11:56;;;;;;;23.80;21.27;;;19.40;99.90;;;;;;4827968;29;20490;-83
2023/08/25 04:14:23;;;;;;;23.77;21.38;;;19.40;99.90;;;;;;4824127;29;20049;-83
2023/08/25 04:16:48;;;;;;;25.90;22.92;;;19.40;99.90;;;;;;4818243;29;20092;-81
2023/08/25 04:19:16;;;;;;;26.05;23.45;;;19.40;99.90;;;;;;4826588;29;20085;-83
2023/08/25 04:21:43;;;;;;;23.52;21.02;;;19.30;99.90;;;;;;4827264;29;20132;-84
2023/08/25 04:24:09;;;;;;;24.88;22.13;;;19.30;99.90;;;;;;4842726;29;20041;-83
2023/08/25 04:26:35;;;;;;;25.15;22.45;;;19.30;99.90;;;;;;4821349;29;20049;-84
2023/08/25 04:29:01;;;;;;;25.08;22.38;;;19.30;99.90;;;;;;4827472;29;20068;-83
2023/08/25 04:31:26;;;;;;;27.10;22.30;;;19.30;99.90;;;;;;4792123;29;20561;-83
2023/08/25 04:33:52;;;;;;;23.58;21.02;;;19.30;99.90;;;;;;4838483;29;20385;-83
2023/08/25 04:36:18;;;;;;;26.05;22.67;;;19.20;99.90;;;;;;4842267;29;20052;-83
2023/08/25 04:38:43;;;;;;;24.05;21.02;;;19.20;99.90;;;;;;4842544;29;20478;-83
2023/08/25 04:41:09;;;;;;;24.55;21.60;;;19.20;99.90;;;;;;4827116;29;20771;-83
2023/08/25 04:43:35;;;;;;;25.42;22.83;;;19.20;99.90;;;;;;4842921;29;20046;-85
2023/08/25 04:46:00;;;;;;;24.13;21.58;;;19.20;99.90;;;;;;4814673;29;20049;-84
2023/08/25 04:48:26;;;;;;;25.65;22.75;;;19.30;99.90;;;;;;4830687;29;20117;-84
2023/08/25 04:50:52;;;;;;;27.65;24.65;;;19.20;99.90;;;;;;4836344;29;20181;-83
2023/08/25 04:53:18;;;;;;;24.30;21.52;;;19.20;99.90;;;;;;4822261;29;20292;-84
2023/08/25 04:55:44;;;;;;;27.75;22.98;;;19.20;99.90;;;;;;4819191;29;20046;-84
2023/08/25 04:58:09;;;;;;;29.95;25.70;;;19.20;99.90;;;;;;4819941;29;20056;-85
2023/08/25 05:00:35;;;;;;;27.80;24.65;;;19.30;99.90;;;;;;4822048;29;20068;-84
2023/08/25 05:03:01;;;;;;;27.65;24.65;;;19.30;99.90;;;;;;4833444;29;20054;-84
2023/08/25 05:05:26;;;;;;;27.85;24.75;;;19.40;99.90;;;;;;4822523;29;20060;-85
2023/08/25 05:07:52;;;;;;;30.27;25.88;;;19.40;99.90;;;;;;4821163;29;20053;-85
2023/08/25 05:10:18;;;;;;;31.92;25.77;;;19.30;99.90;;;;;;4824658;29;20174;-86
2023/08/25 05:12:43;;;;;;;33.50;25.90;;;19.40;99.90;;;;;;4812770;29;20121;-86
2023/08/25 05:15:10;;;;;;;32.97;24.88;;;19.40;99.90;;;;;;4808353;29;20056;-85
2023/08/25 05:17:36;;;;;;;30.05;25.15;;;19.40;99.90;;;;;;4812885;29;20509;-84
2023/08/25 05:20:03;;;;;;;30.60;25.15;;;19.40;99.90;;;;;;4819615;29;20353;-84
2023/08/25 05:22:28;;;;;;;32.75;26.33;;;19.40;99.90;;;;;;4819556;29;20473;-85
2023/08/25 05:24:54;;;;;;;30.30;25.92;;;19.40;99.90;;;;;;4803644;29;20042;-84
2023/08/25 05:27:20;;;;;;;32.80;25.50;;;19.50;99.90;;;;;;4790959;29;20767;-85
2023/08/25 05:29:46;;;;;;;35.65;27.30;;;19.50;99.90;;;;;;4805127;29;20105;-86
2023/08/25 05:32:11;;;;;;;32.67;27.30;;;19.50;99.90;;;;;;4809337;29;20108;-85
2023/08/25 05:34:37;;;;;;;32.85;27.38;;;19.50;99.90;;;;;;4801071;29;20072;-84
2023/08/25 05:37:03;;;;;;;31.27;26.10;;;19.50;99.90;;;;;;4790130;29;20046;-85
2023/08/25 05:39:29;;;;;;;38.55;27.80;;;19.60;99.90;;;;;;4822920;29;20497;-84
2023/08/25 05:41:54;;;;;;;38.38;27.98;;;18.90;99.90;;;;;;4835105;29;20083;-84
2023/08/25 05:44:20;;;;;;;35.35;27.38;;;19.60;99.90;;;;;;4809592;29;20124;-84
2023/08/25 05:46:47;;;;;;;37.33;27.98;;;19.60;99.90;;;;;;4820913;29;20041;-84
2023/08/25 05:49:13;;;;;;;;;;;19.60;99.90;;;;;;4818128;29;20080;-83
2023/08/25 05:51:39;;;;;;;35.90;26.42;;;19.60;99.90;;;;;;4823942;29;19967;-85
2023/08/25 05:54:04;;;;;;;38.78;26.70;;;19.70;99.90;;;;;;4804346;29;20105;-84
2023/08/25 05:56:30;;;;;;;34.63;27.48;;;19.70;99.90;;;;;;4829402;29;20046;-84
2023/08/25 05:58:59;;;;;;;37.17;27.25;;;19.70;99.90;;;;;;4820182;29;20041;-84
2023/08/25 06:01:25;;;;;;;33.33;26.33;;;19.70;99.90;;;;;;4803552;29;20045;-84
2023/08/25 06:03:51;;;;;;;35.80;27.33;;;19.70;99.90;;;;;;4816459;29;20055;-84
2023/08/25 06:06:16;;;;;;;37.22;29.02;;;19.70;99.90;;;;;;4831239;29;20046;-83
2023/08/25 06:08:42;;;;;;;38.88;28.77;;;19.80;99.90;;;;;;4818779;29;20073;-84
2023/08/25 06:11:08;;;;;;;37.95;28.08;;;19.80;99.90;;;;;;4822413;29;20052;-84
2023/08/25 06:13:34;;;;;;;47.03;29.13;;;19.80;99.90;;;;;;4808724;29;20062;-83
2023/08/25 06:16:00;;;;;;;41.70;30.17;;;19.80;99.90;;;;;;4832178;29;20521;-84
2023/08/25 06:18:25;;;;;;;39.47;28.20;;;19.80;99.90;;;;;;4831573;29;20105;-83
2023/08/25 06:20:54;;;;;;;42.13;28.40;;;19.80;99.90;;;;;;4818076;29;20053;-84
2023/08/25 06:23:20;;;;;;;38.45;28.65;;;19.90;99.90;;;;;;4788075;29;20486;-83
2023/08/25 06:25:46;;;;;;;39.10;28.35;;;19.90;99.90;;;;;;4812050;29;20053;-84
2023/08/25 06:28:12;;;;;;;43.67;31.50;;;19.90;99.90;;;;;;4831679;29;20268;-83
2023/08/25 06:30:41;;;;;;;40.55;29.25;;;19.90;99.90;;;;;;4814065;29;20076;-84
2023/08/25 06:33:10;;;;;;;43.35;30.95;;;19.90;99.90;;;;;;4804809;29;20085;-83
2023/08/25 06:35:39;;;;;;;42.58;30.15;;;20.00;99.90;;;;;;4818467;29;20521;-84
2023/08/25 06:38:05;;;;;;;42.53;30.50;;;19.90;99.90;;;;;;4836148;29;20109;-84
2023/08/25 06:40:33;;;;;;;42.38;30.23;;;19.90;99.90;;;;;;4808362;29;20414;-85
2023/08/25 06:43:03;;;;;;;43.95;30.45;;;19.90;99.90;;;;;;4804083;29;20057;-85
2023/08/25 06:45:30;;;;;;;40.00;29.05;;;19.90;99.90;;;;;;4806801;29;20088;-85
2023/08/25 06:47:56;;;;;;;46.28;31.70;;;19.90;99.90;;;;;;4821058;29;20053;-85
2023/08/25 06:50:22;;;;;;;40.78;29.58;;;19.90;99.90;;;;;;4812167;29;20454;-85
2023/08/25 06:52:48;;;;;;;41.40;29.07;;;19.90;99.90;;;;;;4832139;29;20464;-85
2023/08/25 06:55:17;;;;;;;39.80;30.85;;;19.90;99.90;;;;;;4815961;29;20056;-84
2023/08/25 06:57:45;;;;;;;39.17;29.45;;;19.90;99.90;;;;;;4828278;29;20049;-85
2023/08/25 07:00:12;;;;;;;41.30;30.40;;;19.90;99.90;;;;;;4825446;29;20124;-86
2023/08/25 07:02:40;;;;;;;39.63;30.15;;;19.90;99.90;;;;;;4805820;29;20050;-86
2023/08/25 07:05:06;;;;;;;39.75;29.65;;;19.90;99.90;;;;;;4799070;29;20087;-86
2023/08/25 07:07:33;;;;;;;38.57;28.50;;;19.90;99.90;;;;;;4823789;29;20080;-85
2023/08/25 07:09:59;;;;;;;36.72;27.40;;;19.90;99.90;;;;;;4811609;29;20586;-85
2023/08/25 07:12:25;;;;;;;34.88;28.20;;;19.90;99.90;;;;;;4820686;29;20045;-87
2023/08/25 07:14:52;;;;;;;36.53;28.83;;;20.00;99.90;;;;;;4824034;29;20499;-91
2023/08/25 07:17:18;;;;;;;33.00;25.92;;;20.00;99.90;;;;;;4824660;29;20049;-85
2023/08/25 07:19:43;;;;;;;33.85;26.02;;;20.00;99.90;;;;;;4809080;29;20087;-84
2023/08/25 07:22:09;;;;;;;28.98;25.00;;;20.00;99.90;;;;;;4810215;29;20517;-87
2023/08/25 07:24:35;;;;;;;29.52;24.63;;;20.00;99.90;;;;;;4826798;29;20041;-85
2023/08/25 07:27:01;;;;;;;31.60;24.17;;;20.00;99.90;;;;;;4810449;29;20041;-86
2023/08/25 07:29:29;;;;;;;31.00;25.45;;;19.90;99.90;;;;;;4795894;29;20067;-85
2023/08/25 07:31:55;;;;;;;30.60;24.58;;;20.00;99.90;;;;;;4834177;29;20042;-84
2023/08/25 07:34:21;;;;;;;27.33;23.23;;;20.00;99.90;;;;;;4824648;29;20048;-89
2023/08/25 07:36:55;;;;;;;28.77;22.48;;;20.10;99.90;;;;;;4824043;29;20193;-90
2023/08/25 07:39:21;;;;;;;28.50;22.65;;;20.20;99.90;;;;;;4827944;29;20106;-89
2023/08/25 07:41:51;;;;;;;28.33;23.33;;;20.30;99.90;;;;;;4824019;29;20149;-88
2023/08/25 07:44:17;;;;;;;29.33;22.92;;;20.40;99.90;;;;;;4833422;29;20049;-88
2023/08/25 07:46:45;;;;;;;26.38;22.23;;;20.40;99.90;;;;;;4790857;29;20049;-86
2023/08/25 07:49:11;;;;;;;25.17;21.95;;;20.40;99.90;;;;;;4825652;29;20105;-87
2023/08/25 07:51:38;;;;;;;23.83;20.33;;;20.50;99.90;;;;;;4823878;29;20049;-87
2023/08/25 07:54:09;;;;;;;26.20;20.17;;;20.50;99.90;;;;;;4824628;29;20041;-87
2023/08/25 07:56:35;;;;;;;23.70;19.67;;;20.50;99.90;;;;;;4815799;29;20812;-87
2023/08/25 07:59:12;;;;;;;21.48;19.17;;;20.50;99.90;;;;;;4836513;29;20060;-88
2023/08/25 08:01:38;;;;;;;26.33;20.73;;;20.50;99.90;;;;;;4822656;29;20092;-88
2023/08/25 08:04:04;;;;;;;25.38;20.58;;;20.50;99.90;;;;;;4809439;29;20076;-92
2023/08/25 08:06:30;;;;;;;26.00;20.00;;;20.60;99.90;;;;;;4821318;29;20073;-91
2023/08/25 08:08:56;;;;;;;25.73;20.88;;;20.60;99.90;;;;;;4819073;29;20046;-89
2023/08/25 08:11:21;;;;;;;24.25;20.80;;;20.60;99.90;;;;;;4825887;29;20444;-90
2023/08/25 08:13:47;;;;;;;24.98;22.13;;;20.60;99.90;;;;;;4827387;29;20128;-90
2023/08/25 08:16:15;;;;;;;27.98;20.48;;;20.60;99.90;;;;;;4850602;29;20053;-91
2023/08/25 08:18:44;;;;;;;21.08;18.88;;;20.60;99.90;;;;;;4805064;29;20049;-92
2023/08/25 08:21:10;;;;;;;19.25;16.80;;;20.50;99.90;;;;;;4829215;29;20723;-90
2023/08/25 08:23:36;;;;;;;20.75;16.75;;;20.50;99.90;;;;;;4826831;29;20174;-91
2023/08/25 08:26:03;;;;;;;17.58;15.77;;;20.50;99.90;;;;;;4814399;29;20139;-91
2023/08/25 08:28:28;;;;;;;;;;;20.50;99.90;;;;;;4816546;29;20065;-92
2023/08/25 08:30:57;;;;;;;17.38;14.23;;;20.50;99.90;;;;;;4811261;29;19920;-91
2023/08/25 08:33:23;;;;;;;17.27;15.48;;;20.50;99.90;;;;;;4807693;29;20049;-95
2023/08/25 08:35:48;;;;;;;18.83;15.48;;;20.50;99.90;;;;;;4819688;29;20081;-95
2023/08/25 08:38:14;;;;;;;16.15;14.30;;;20.50;99.90;;;;;;4785440;29;20052;-91
2023/08/25 08:40:40;;;;;;;14.40;12.90;;;20.50;99.90;;;;;;4818244;29;20037;-89
2023/08/25 08:43:10;;;;;;;14.23;12.57;;;20.60;99.90;;;;;;4831667;29;20041;-91
2023/08/25 08:45:39;;;;;;;15.80;13.38;;;20.60;99.90;;;;;;4825268;29;20477;-95
2023/08/25 08:48:06;;;;;;;15.40;12.50;;;21.00;99.90;;;;;;4818958;29;20064;-96
2023/08/25 08:50:33;;;;;;;17.83;11.95;;;21.50;99.90;;;;;;4827704;29;20048;-93
2023/08/25 08:53:00;;;;;;;13.70;11.63;;;21.60;99.90;;;;;;4844725;29;20049;-91
2023/08/25 08:55:27;;;;;;;13.07;10.63;;;21.50;99.90;;;;;;4830890;29;20497;-87
2023/08/25 08:57:52;;;;;;;13.88;12.43;;;21.50;99.90;;;;;;4791877;29;20503;-95
2023/08/25 09:00:21;;;;;;;16.90;13.90;;;21.50;99.90;;;;;;4826947;29;20132;-95
2023/08/25 09:02:53;;;;;;;15.80;13.32;;;21.40;99.90;;;;;;4817992;29;20046;-90
2023/08/25 09:05:28;;;;;;;16.92;13.30;;;21.40;99.90;;;;;;4844222;29;20046;-95
2023/08/25 09:08:03;;;;;;;14.82;12.30;;;21.20;99.90;;;;;;4830039;29;20049;-91
2023/08/25 09:10:30;;;;;;;17.45;13.90;;;21.20;99.90;;;;;;4825017;29;20133;-85
2023/08/25 09:12:56;;;;;;;14.20;11.65;;;21.30;99.90;;;;;;4829299;29;20053;-86
2023/08/25 09:15:30;;;;;;;17.10;12.70;;;21.30;99.90;;;;;;4824305;29;20466;-85
2023/08/25 09:18:04;;;;;;;15.90;12.38;;;21.30;99.90;;;;;;4822583;29;20088;-84
2023/08/25 09:20:35;;;;;;;13.45;12.07;;;21.40;99.90;;;;;;4811534;29;20046;-84
2023/08/25 09:23:02;;;;;;;16.70;12.95;;;21.40;99.90;;;;;;4827213;29;20045;-85
2023/08/25 09:25:29;;;;;;;14.68;13.13;;;21.40;99.90;;;;;;4809488;29;20566;-84
2023/08/25 09:28:03;;;;;;;17.00;12.77;;;21.40;99.90;;;;;;4821659;29;20498;-85
2023/08/25 09:30:37;;;;;;;13.70;12.25;;;21.40;99.90;;;;;;4837295;29;20101;-89
2023/08/25 09:33:08;;;;;;;14.82;12.75;;;21.40;99.90;;;;;;4821840;29;20798;-85
2023/08/25 09:35:34;;;;;;;14.43;11.95;;;21.20;99.90;;;;;;4820806;29;20537;-85
2023/08/25 09:38:01;;;;;;;13.68;11.93;;;21.20;99.90;;;;;;4821322;29;20490;-85
2023/08/25 09:40:27;;;;;;;15.57;13.07;;;21.30;99.90;;;;;;4841384;29;20053;-84
2023/08/25 09:43:01;;;;;;;15.57;13.25;;;21.30;99.90;;;;;;4820984;29;20056;-86
2023/08/25 09:45:31;;;;;;;13.52;12.07;;;21.20;99.90;;;;;;4821185;29;20041;-86
2023/08/25 09:48:11;;;;;;;14.38;12.82;;;21.30;99.90;;;;;;4824379;29;20199;-85
2023/08/25 09:50:41;;;;;;;15.40;13.13;;;21.40;99.90;;;;;;4809715;29;20049;-84
2023/08/25 09:53:09;;;;;;;14.07;12.52;;;21.50;99.90;;;;;;4845301;29;20084;-86
2023/08/25 09:55:39;;;;;;;14.55;11.95;;;21.80;99.90;;;;;;4827820;29;20052;-85
2023/08/25 09:58:08;;;;;;;15.70;13.32;;;22.00;99.90;;;;;;4845810;29;20081;-85
2023/08/25 10:00:36;;;;;;;16.17;13.35;;;22.10;99.90;;;;;;4812192;29;20082;-86
2023/08/25 10:03:10;;;;;;;14.43;13.02;;;22.20;99.90;;;;;;4828089;29;20137;-90
2023/08/25 10:05:37;;;;;;;15.20;12.38;;;22.30;99.90;;;;;;4814979;29;20073;-88
2023/08/25 10:08:06;;;;;;;16.48;13.00;;;22.30;99.90;;;;;;4829036;29;20558;-88
2023/08/25 10:10:35;;;;;;;14.82;12.20;;;22.30;99.90;;;;;;4835181;29;20041;-85
2023/08/25 10:13:03;;;;;;;14.02;12.38;;;22.30;99.90;;;;;;4825448;29;20053;-84
2023/08/25 10:15:31;;;;;;;14.63;12.18;;;22.20;99.90;;;;;;4838085;29;20056;-85
2023/08/25 10:18:03;;;;;;;16.05;13.07;;;22.10;99.90;;;;;;4834035;29;20054;-84
2023/08/25 10:20:33;;;;;;;12.50;11.18;;;22.00;99.90;;;;;;4808189;29;20201;-84
2023/08/25 10:23:00;;;;;;;13.38;11.77;;;22.00;99.90;;;;;;4828604;29;20205;-85
2023/08/25 10:25:29;;;;;;;13.65;12.20;;;22.00;99.90;;;;;;4798585;29;20125;-84
2023/08/25 10:28:00;;;;;;;15.60;11.88;;;22.00;99.90;;;;;;4809308;29;20121;-84
2023/08/25 10:30:27;;;;;;;13.55;12.00;;;21.90;99.90;;;;;;4810129;29;20073;-84
2023/08/25 10:33:07;;;;;;;14.07;12.38;;;21.80;99.90;;;;;;4814179;29;20057;-83
2023/08/25 10:35:44;;;;;;;17.10;12.90;;;21.80;99.90;;;;;;4812571;29;20078;-83
2023/08/25 10:38:19;;;;;;;14.20;12.23;;;21.80;99.90;;;;;;4825280;29;20054;-82
2023/08/25 10:40:53;;;;;;;13.75;12.35;;;21.80;99.90;;;;;;4813449;29;20085;-82
2023/08/25 10:43:32;;;;;;;14.40;12.90;;;21.70;99.90;;;;;;4805460;29;20045;-80
2023/08/25 10:46:01;;;;;;;16.55;14.95;;;21.70;99.90;;;;;;4800148;29;20041;-81
2023/08/25 10:48:27;;;;;;;17.35;14.95;;;21.60;99.90;;;;;;4801819;29;20801;-81
2023/08/25 10:51:08;;;;;;;17.07;13.57;;;21.60;99.90;;;;;;4820579;29;20042;-81
2023/08/25 10:53:36;;;;;;;16.58;13.65;;;21.60;99.90;;;;;;4838683;29;20660;-82
2023/08/25 10:56:21;;;;;;;17.30;15.38;;;21.60;99.90;;;;;;4832168;29;20473;-83
2023/08/25 10:58:59;;;;;;;15.07;12.88;;;21.50;99.90;;;;;;4816137;29;20050;-82
2023/08/25 11:01:37;;;;;;;15.25;13.70;;;21.50;99.90;;;;;;4815632;29;20107;-83
2023/08/25 11:04:11;;;;;;;17.23;14.95;;;21.50;99.90;;;;;;4842281;29;20050;-83
2023/08/25 11:06:43;;;;;;;17.00;15.27;;;21.50;99.90;;;;;;4838309;29;20911;-81
2023/08/25 11:09:18;;;;;;;17.10;14.57;;;21.40;99.90;;;;;;4830096;29;20153;-81
2023/08/25 11:11:46;;;;;;;16.38;14.68;;;21.40;99.90;;;;;;4837322;29;20057;-83
2023/08/25 11:14:13;;;;;;;19.23;15.60;;;21.40;99.90;;;;;;4824750;29;20085;-82
2023/08/25 11:16:41;;;;;;;;;;;21.40;99.90;;;;;;4818643;29;20049;-82
2023/08/25 11:19:11;;;;;;;16.67;14.98;;;21.40;99.90;;;;;;4821242;29;19928;-82
2023/08/25 11:21:37;;;;;;;17.08;15.25;;;21.40;99.90;;;;;;4822929;29;20458;-82
2023/08/25 11:24:03;;;;;;;16.92;15.20;;;21.40;99.90;;;;;;4794439;29;20215;-82
2023/08/25 11:26:30;;;;;;;19.63;14.98;;;21.40;99.90;;;;;;4813328;29;20264;-83
2023/08/25 11:28:56;;;;;;;19.20;15.60;;;21.30;99.90;;;;;;4803384;29;20038;-86
2023/08/25 11:31:23;;;;;;;17.23;15.35;;;21.30;99.90;;;;;;4806686;29;20402;-87
2023/08/25 11:33:54;;;;;;;15.65;14.05;;;21.30;99.90;;;;;;4832195;29;20406;-89
2023/08/25 11:36:24;;;;;;;17.20;15.07;;;21.30;99.90;;;;;;4809051;29;20194;-94
2023/08/25 11:38:50;;;;;;;17.60;15.70;;;21.20;99.90;;;;;;4839529;29;20092;-91
2023/08/25 11:41:21;;;;;;;17.42;15.65;;;21.10;99.90;;;;;;4815397;29;20089;-92
2023/08/25 11:43:48;;;;;;;18.02;16.20;;;20.90;99.90;;;;;;4828302;29;21043;-90
2023/08/25 11:46:15;;;;;;;17.20;15.50;;;20.80;99.90;;;;;;4799843;29;20057;-88
2023/08/25 11:48:41;;;;;;;18.60;15.50;;;20.70;99.90;;;;;;4838463;29;20045;-87
2023/08/25 11:51:17;;;;;;;16.45;14.80;;;20.60;99.90;;;;;;4815044;29;20641;-90
2023/08/25 11:53:46;;;;;;;19.23;15.43;;;20.50;99.90;;;;;;4841008;29;20044;-88
2023/08/25 11:56:48;;;;;;;18.20;15.95;;;20.40;99.90;;;;;;4825749;29;20054;-86
2023/08/25 11:59:18;;;;;;;17.75;14.35;;;20.40;99.90;;;;;;4821819;29;20137;-84
2023/08/25 12:01:47;;;;;;;17.08;15.27;;;20.30;99.90;;;;;;4840419;29;20048;-83
2023/08/25 12:04:21;;;;;;;17.33;15.00;;;20.40;99.90;;;;;;4818209;29;20105;-84
2023/08/25 12:06:47;;;;;;;16.52;14.82;;;20.30;99.90;;;;;;4800877;29;20401;-84
2023/08/25 12:09:12;;;;;;;18.20;15.00;;;20.30;99.90;;;;;;4816006;29;20053;-83
2023/08/25 12:11:38;;;;;;;15.85;14.18;;;20.30;99.90;;;;;;4821967;29;20149;-84
2023/08/25 12:14:04;;;;;;;16.58;14.05;;;20.40;99.90;;;;;;4816679;29;20069;-84
2023/08/25 12:16:30;;;;;;;16.45;14.50;;;20.40;99.90;;;;;;4821085;29;20049;-84
2023/08/25 12:18:55;;;;;;;16.40;14.73;;;20.50;99.90;;;;;;4814623;29;20513;-84
2023/08/25 12:21:21;;;;;;;17.90;16.02;;;20.60;99.90;;;;;;4824732;29;20053;-85
2023/08/25 12:23:47;;;;;;;17.65;15.88;;;20.60;99.90;;;;;;4791837;29;20042;-85
2023/08/25 12:26:13;;;;;;;16.17;14.55;;;20.70;99.90;;;;;;4837585;29;20438;-85
2023/08/25 12:28:40;;;;;;;16.47;14.83;;;20.80;99.90;;;;;;4806000;29;20101;-87
2023/08/25 12:31:06;;;;;;;17.65;15.27;;;20.90;99.90;;;;;;4823422;29;20522;-84